sensor_id;sensor_type;location;lat;lon;timestamp;P1;durP1;ratioP1;P2;durP2;ratioP2
6089;SDS011;3073;42.660;23.316;2022-12-11T00:02:18;42.83;;;24.83;;
6089;SDS011;3073;42.660;23.316;2022-12-11T00:04:45;45.97;;;26.37;;
6089;SDS011;3073;42.660;23.316;2022-12-11T00:07:13;45.20;;;25.50;;
6089;SDS011;3073;42.660;23.316;2022-12-11T00:09:40;38.50;;;25.27;;
6089;SDS011;3073;42.660;23.316;2022-12-11T00:12:07;42.33;;;25.10;;
6089;SDS011;3073;42.660;23.316;2022-12-11T00:14:36;41.03;;;25.63;;
6089;SDS011;3073;42.660;23.316;2022-12-11T00:17:03;44.20;;;25.67;;
6089;SDS011;3073;42.660;23.316;2022-12-11T00:19:29;46.93;;;27.00;;
6089;SDS011;3073;42.660;23.316;2022-12-11T00:21:56;38.63;;;25.10;;
6089;SDS011;3073;42.660;23.316;2022-12-11T00:24:23;46.57;;;28.40;;
6089;SDS011;3073;42.660;23.316;2022-12-11T00:26:50;37.63;;;24.37;;
6089;SDS011;3073;42.660;23.316;2022-12-11T00:29:17;44.20;;;24.77;;
6089;SDS011;3073;42.660;23.316;2022-12-11T00:31:46;43.53;;;26.23;;
6089;SDS011;3073;42.660;23.316;2022-12-11T00:34:13;44.33;;;23.47;;
6089;SDS011;3073;42.660;23.316;2022-12-11T00:36:39;43.57;;;24.07;;
6089;SDS011;3073;42.660;23.316;2022-12-11T00:39:06;47.10;;;24.23;;
6089;SDS011;3073;42.660;23.316;2022-12-11T00:41:34;44.13;;;22.37;;
6089;SDS011;3073;42.660;23.316;2022-12-11T00:44:01;44.87;;;22.57;;
6089;SDS011;3073;42.660;23.316;2022-12-11T00:46:28;38.70;;;22.27;;
6089;SDS011;3073;42.660;23.316;2022-12-11T00:48:57;36.73;;;22.60;;
6089;SDS011;3073;42.660;23.316;2022-12-11T00:51:23;37.93;;;20.63;;
6089;SDS011;3073;42.660;23.316;2022-12-11T00:53:51;38.50;;;22.43;;
6089;SDS011;3073;42.660;23.316;2022-12-11T00:56:19;38.10;;;21.70;;
6089;SDS011;3073;42.660;23.316;2022-12-11T00:58:47;39.33;;;22.47;;
6089;SDS011;3073;42.660;23.316;2022-12-11T01:01:15;38.10;;;22.10;;
6089;SDS011;3073;42.660;23.316;2022-12-11T01:03:44;38.33;;;23.50;;
6089;SDS011;3073;42.660;23.316;2022-12-11T01:06:14;40.87;;;22.47;;
6089;SDS011;3073;42.660;23.316;2022-12-11T01:08:42;46.43;;;22.90;;
6089;SDS011;3073;42.660;23.316;2022-12-11T01:11:10;33.47;;;19.50;;
6089;SDS011;3073;42.660;23.316;2022-12-11T01:13:38;42.40;;;20.57;;
6089;SDS011;3073;42.660;23.316;2022-12-11T01:16:06;29.70;;;16.80;;
6089;SDS011;3073;42.660;23.316;2022-12-11T01:18:34;34.20;;;17.70;;
6089;SDS011;3073;42.660;23.316;2022-12-11T01:21:04;31.47;;;17.73;;
6089;SDS011;3073;42.660;23.316;2022-12-11T01:23:33;29.23;;;17.00;;
6089;SDS011;3073;42.660;23.316;2022-12-11T01:26:04;25.13;;;15.70;;
6089;SDS011;3073;42.660;23.316;2022-12-11T01:28:32;31.50;;;16.93;;
6089;SDS011;3073;42.660;23.316;2022-12-11T01:30:59;32.60;;;16.60;;
6089;SDS011;3073;42.660;23.316;2022-12-11T01:33:26;25.60;;;14.70;;
6089;SDS011;3073;42.660;23.316;2022-12-11T01:35:53;18.60;;;8.27;;
6089;SDS011;3073;42.660;23.316;2022-12-11T01:38:19;6.10;;;2.30;;
6089;SDS011;3073;42.660;23.316;2022-12-11T01:40:48;2.77;;;2.00;;
6089;SDS011;3073;42.660;23.316;2022-12-11T01:43:16;4.20;;;0.80;;
6089;SDS011;3073;42.660;23.316;2022-12-11T01:45:45;1.13;;;0.60;;
6089;SDS011;3073;42.660;23.316;2022-12-11T01:48:14;1.40;;;0.50;;
6089;SDS011;3073;42.660;23.316;2022-12-11T01:50:44;1.60;;;0.50;;
6089;SDS011;3073;42.660;23.316;2022-12-11T01:53:15;0.90;;;0.50;;
6089;SDS011;3073;42.660;23.316;2022-12-11T01:55:45;5.80;;;2.90;;
6089;SDS011;3073;42.660;23.316;2022-12-11T01:58:17;7.40;;;4.87;;
6089;SDS011;3073;42.660;23.316;2022-12-11T02:00:46;20.60;;;8.80;;
6089;SDS011;3073;42.660;23.316;2022-12-11T02:03:13;15.80;;;8.00;;
6089;SDS011;3073;42.660;23.316;2022-12-11T02:05:40;2.43;;;1.50;;
6089;SDS011;3073;42.660;23.316;2022-12-11T02:08:07;2.50;;;1.07;;
6089;SDS011;3073;42.660;23.316;2022-12-11T02:10:38;7.20;;;3.70;;
6089;SDS011;3073;42.660;23.316;2022-12-11T02:13:17;1.07;;;0.53;;
6089;SDS011;3073;42.660;23.316;2022-12-11T02:15:49;0.97;;;0.40;;
6089;SDS011;3073;42.660;23.316;2022-12-11T02:18:24;3.33;;;0.50;;
6089;SDS011;3073;42.660;23.316;2022-12-11T02:20:57;0.90;;;0.40;;
6089;SDS011;3073;42.660;23.316;2022-12-11T02:23:39;3.00;;;0.60;;
6089;SDS011;3073;42.660;23.316;2022-12-11T02:26:28;1.30;;;0.80;;
6089;SDS011;3073;42.660;23.316;2022-12-11T02:29:05;1.50;;;0.87;;
6089;SDS011;3073;42.660;23.316;2022-12-11T02:31:39;3.07;;;1.30;;
6089;SDS011;3073;42.660;23.316;2022-12-11T02:34:11;2.00;;;1.63;;
6089;SDS011;3073;42.660;23.316;2022-12-11T02:36:42;2.90;;;1.27;;
6089;SDS011;3073;42.660;23.316;2022-12-11T02:39:12;2.40;;;1.60;;
6089;SDS011;3073;42.660;23.316;2022-12-11T02:41:42;4.20;;;1.90;;
6089;SDS011;3073;42.660;23.316;2022-12-11T02:44:14;1.80;;;1.57;;
6089;SDS011;3073;42.660;23.316;2022-12-11T02:46:42;2.90;;;1.97;;
6089;SDS011;3073;42.660;23.316;2022-12-11T02:49:11;4.13;;;2.00;;
6089;SDS011;3073;42.660;23.316;2022-12-11T02:51:39;4.93;;;1.30;;
6089;SDS011;3073;42.660;23.316;2022-12-11T02:54:08;2.00;;;1.50;;
6089;SDS011;3073;42.660;23.316;2022-12-11T02:56:40;1.83;;;1.17;;
6089;SDS011;3073;42.660;23.316;2022-12-11T02:59:12;2.50;;;1.77;;
6089;SDS011;3073;42.660;23.316;2022-12-11T03:01:44;4.67;;;1.00;;
6089;SDS011;3073;42.660;23.316;2022-12-11T03:04:12;1.20;;;0.60;;
6089;SDS011;3073;42.660;23.316;2022-12-11T03:06:40;1.40;;;0.53;;
6089;SDS011;3073;42.660;23.316;2022-12-11T03:09:09;1.63;;;0.80;;
6089;SDS011;3073;42.660;23.316;2022-12-11T03:11:36;1.80;;;0.63;;
6089;SDS011;3073;42.660;23.316;2022-12-11T03:14:03;1.63;;;0.60;;
6089;SDS011;3073;42.660;23.316;2022-12-11T03:16:32;2.80;;;0.57;;
6089;SDS011;3073;42.660;23.316;2022-12-11T03:19:07;1.00;;;0.57;;
6089;SDS011;3073;42.660;23.316;2022-12-11T03:21:43;1.90;;;1.07;;
6089;SDS011;3073;42.660;23.316;2022-12-11T03:24:17;3.73;;;1.20;;
6089;SDS011;3073;42.660;23.316;2022-12-11T03:26:48;2.40;;;0.60;;
6089;SDS011;3073;42.660;23.316;2022-12-11T03:29:22;1.07;;;0.40;;
6089;SDS011;3073;42.660;23.316;2022-12-11T03:31:55;5.53;;;0.60;;
6089;SDS011;3073;42.660;23.316;2022-12-11T03:34:26;2.23;;;0.80;;
6089;SDS011;3073;42.660;23.316;2022-12-11T03:36:56;2.40;;;0.67;;
6089;SDS011;3073;42.660;23.316;2022-12-11T03:39:26;3.00;;;0.80;;
6089;SDS011;3073;42.660;23.316;2022-12-11T03:41:57;1.60;;;0.70;;
6089;SDS011;3073;42.660;23.316;2022-12-11T03:44:26;1.83;;;0.63;;
6089;SDS011;3073;42.660;23.316;2022-12-11T03:46:57;1.97;;;0.80;;
6089;SDS011;3073;42.660;23.316;2022-12-11T03:49:27;2.63;;;0.60;;
6089;SDS011;3073;42.660;23.316;2022-12-11T03:51:58;1.43;;;1.00;;
6089;SDS011;3073;42.660;23.316;2022-12-11T03:54:28;3.30;;;0.80;;
6089;SDS011;3073;42.660;23.316;2022-12-11T03:56:56;2.37;;;0.70;;
6089;SDS011;3073;42.660;23.316;2022-12-11T03:59:26;1.30;;;0.80;;
6089;SDS011;3073;42.660;23.316;2022-12-11T04:01:53;1.37;;;0.80;;
6089;SDS011;3073;42.660;23.316;2022-12-11T04:04:21;3.00;;;0.73;;
6089;SDS011;3073;42.660;23.316;2022-12-11T04:06:48;2.47;;;0.70;;
6089;SDS011;3073;42.660;23.316;2022-12-11T04:09:15;2.50;;;0.97;;
6089;SDS011;3073;42.660;23.316;2022-12-11T04:11:42;1.90;;;0.90;;
6089;SDS011;3073;42.660;23.316;2022-12-11T04:14:10;1.17;;;0.57;;
6089;SDS011;3073;42.660;23.316;2022-12-11T04:16:56;1.50;;;0.90;;
6089;SDS011;3073;42.660;23.316;2022-12-11T04:19:25;1.67;;;0.70;;
6089;SDS011;3073;42.660;23.316;2022-12-11T04:22:10;2.33;;;0.80;;
6089;SDS011;3073;42.660;23.316;2022-12-11T04:24:53;1.30;;;0.60;;
6089;SDS011;3073;42.660;23.316;2022-12-11T04:27:20;3.50;;;1.13;;
6089;SDS011;3073;42.660;23.316;2022-12-11T04:30:06;1.60;;;0.80;;
6089;SDS011;3073;42.660;23.316;2022-12-11T04:32:35;1.70;;;0.90;;
6089;SDS011;3073;42.660;23.316;2022-12-11T04:35:04;1.60;;;0.70;;
6089;SDS011;3073;42.660;23.316;2022-12-11T04:37:32;2.57;;;1.10;;
6089;SDS011;3073;42.660;23.316;2022-12-11T04:40:01;1.47;;;0.70;;
6089;SDS011;3073;42.660;23.316;2022-12-11T04:42:28;2.33;;;0.80;;
6089;SDS011;3073;42.660;23.316;2022-12-11T04:44:54;2.17;;;0.70;;
6089;SDS011;3073;42.660;23.316;2022-12-11T04:47:21;1.30;;;0.70;;
6089;SDS011;3073;42.660;23.316;2022-12-11T04:49:48;2.10;;;0.60;;
6089;SDS011;3073;42.660;23.316;2022-12-11T04:52:17;1.40;;;0.70;;
6089;SDS011;3073;42.660;23.316;2022-12-11T04:54:44;1.87;;;0.60;;
6089;SDS011;3073;42.660;23.316;2022-12-11T04:57:11;1.20;;;0.70;;
6089;SDS011;3073;42.660;23.316;2022-12-11T04:59:38;1.50;;;0.80;;
6089;SDS011;3073;42.660;23.316;2022-12-11T05:02:05;1.30;;;0.70;;
6089;SDS011;3073;42.660;23.316;2022-12-11T05:04:32;1.30;;;0.77;;
6089;SDS011;3073;42.660;23.316;2022-12-11T05:06:59;2.67;;;0.97;;
6089;SDS011;3073;42.660;23.316;2022-12-11T05:09:28;1.90;;;0.77;;
6089;SDS011;3073;42.660;23.316;2022-12-11T05:11:55;4.50;;;0.90;;
6089;SDS011;3073;42.660;23.316;2022-12-11T05:14:22;1.80;;;0.70;;
6089;SDS011;3073;42.660;23.316;2022-12-11T05:16:50;2.13;;;0.80;;
6089;SDS011;3073;42.660;23.316;2022-12-11T05:19:17;1.70;;;0.60;;
6089;SDS011;3073;42.660;23.316;2022-12-11T05:21:44;3.10;;;0.70;;
6089;SDS011;3073;42.660;23.316;2022-12-11T05:24:10;4.60;;;1.10;;
6089;SDS011;3073;42.660;23.316;2022-12-11T05:26:39;1.77;;;0.73;;
6089;SDS011;3073;42.660;23.316;2022-12-11T05:29:07;4.97;;;0.97;;
6089;SDS011;3073;42.660;23.316;2022-12-11T05:31:33;7.07;;;1.47;;
6089;SDS011;3073;42.660;23.316;2022-12-11T05:34:00;1.83;;;1.00;;
6089;SDS011;3073;42.660;23.316;2022-12-11T05:36:28;2.60;;;1.20;;
6089;SDS011;3073;42.660;23.316;2022-12-11T05:38:56;4.20;;;0.63;;
6089;SDS011;3073;42.660;23.316;2022-12-11T05:41:25;2.83;;;1.00;;
6089;SDS011;3073;42.660;23.316;2022-12-11T05:43:54;5.33;;;0.87;;
6089;SDS011;3073;42.660;23.316;2022-12-11T05:46:22;2.30;;;0.90;;
6089;SDS011;3073;42.660;23.316;2022-12-11T05:48:51;3.30;;;0.73;;
6089;SDS011;3073;42.660;23.316;2022-12-11T05:51:20;3.63;;;0.80;;
6089;SDS011;3073;42.660;23.316;2022-12-11T05:53:48;1.97;;;0.73;;
6089;SDS011;3073;42.660;23.316;2022-12-11T05:56:16;6.40;;;0.80;;
6089;SDS011;3073;42.660;23.316;2022-12-11T05:58:45;5.47;;;0.93;;
6089;SDS011;3073;42.660;23.316;2022-12-11T06:01:14;1.37;;;0.60;;
6089;SDS011;3073;42.660;23.316;2022-12-11T06:03:43;3.00;;;0.80;;
6089;SDS011;3073;42.660;23.316;2022-12-11T06:06:09;1.33;;;0.60;;
6089;SDS011;3073;42.660;23.316;2022-12-11T06:08:37;11.70;;;0.93;;
6089;SDS011;3073;42.660;23.316;2022-12-11T06:11:04;3.60;;;0.70;;
6089;SDS011;3073;42.660;23.316;2022-12-11T06:13:31;4.37;;;1.20;;
6089;SDS011;3073;42.660;23.316;2022-12-11T06:16:01;3.53;;;1.00;;
6089;SDS011;3073;42.660;23.316;2022-12-11T06:18:30;14.40;;;0.90;;
6089;SDS011;3073;42.660;23.316;2022-12-11T06:21:00;2.70;;;1.13;;
6089;SDS011;3073;42.660;23.316;2022-12-11T06:23:27;8.60;;;0.90;;
6089;SDS011;3073;42.660;23.316;2022-12-11T06:25:53;4.70;;;1.30;;
6089;SDS011;3073;42.660;23.316;2022-12-11T06:28:21;2.27;;;0.90;;
6089;SDS011;3073;42.660;23.316;2022-12-11T06:30:47;1.10;;;0.60;;
6089;SDS011;3073;42.660;23.316;2022-12-11T06:33:14;1.60;;;0.70;;
6089;SDS011;3073;42.660;23.316;2022-12-11T06:35:42;6.33;;;1.20;;
6089;SDS011;3073;42.660;23.316;2022-12-11T06:38:09;3.67;;;1.47;;
6089;SDS011;3073;42.660;23.316;2022-12-11T06:40:36;2.70;;;0.80;;
6089;SDS011;3073;42.660;23.316;2022-12-11T06:43:03;1.83;;;0.60;;
6089;SDS011;3073;42.660;23.316;2022-12-11T06:45:30;2.17;;;0.70;;
6089;SDS011;3073;42.660;23.316;2022-12-11T06:47:57;6.53;;;0.97;;
6089;SDS011;3073;42.660;23.316;2022-12-11T06:50:24;1.93;;;0.80;;
6089;SDS011;3073;42.660;23.316;2022-12-11T06:52:52;2.50;;;0.77;;
6089;SDS011;3073;42.660;23.316;2022-12-11T06:55:21;1.20;;;0.60;;
6089;SDS011;3073;42.660;23.316;2022-12-11T06:57:48;2.60;;;0.70;;
6089;SDS011;3073;42.660;23.316;2022-12-11T07:00:15;4.27;;;1.00;;
6089;SDS011;3073;42.660;23.316;2022-12-11T07:02:42;2.70;;;0.70;;
6089;SDS011;3073;42.660;23.316;2022-12-11T07:05:09;1.33;;;0.70;;
6089;SDS011;3073;42.660;23.316;2022-12-11T07:07:36;1.83;;;0.70;;
6089;SDS011;3073;42.660;23.316;2022-12-11T07:10:05;2.60;;;0.70;;
6089;SDS011;3073;42.660;23.316;2022-12-11T07:12:32;8.80;;;1.20;;
6089;SDS011;3073;42.660;23.316;2022-12-11T07:14:59;2.87;;;1.10;;
6089;SDS011;3073;42.660;23.316;2022-12-11T07:17:26;2.07;;;0.70;;
6089;SDS011;3073;42.660;23.316;2022-12-11T07:19:54;5.07;;;0.93;;
6089;SDS011;3073;42.660;23.316;2022-12-11T07:22:20;1.53;;;0.70;;
6089;SDS011;3073;42.660;23.316;2022-12-11T07:24:47;5.90;;;0.77;;
6089;SDS011;3073;42.660;23.316;2022-12-11T07:27:16;2.53;;;0.77;;
6089;SDS011;3073;42.660;23.316;2022-12-11T07:29:43;2.40;;;0.70;;
6089;SDS011;3073;42.660;23.316;2022-12-11T07:32:10;1.23;;;0.70;;
6089;SDS011;3073;42.660;23.316;2022-12-11T07:34:37;2.80;;;0.87;;
6089;SDS011;3073;42.660;23.316;2022-12-11T07:37:04;1.97;;;1.23;;
6089;SDS011;3073;42.660;23.316;2022-12-11T07:39:31;1.27;;;0.80;;
6089;SDS011;3073;42.660;23.316;2022-12-11T07:41:58;2.13;;;0.90;;
6089;SDS011;3073;42.660;23.316;2022-12-11T07:44:26;1.80;;;0.73;;
6089;SDS011;3073;42.660;23.316;2022-12-11T07:46:53;3.83;;;0.97;;
6089;SDS011;3073;42.660;23.316;2022-12-11T07:49:20;4.23;;;0.90;;
6089;SDS011;3073;42.660;23.316;2022-12-11T07:51:47;4.93;;;1.27;;
6089;SDS011;3073;42.660;23.316;2022-12-11T07:54:14;7.03;;;0.87;;
6089;SDS011;3073;42.660;23.316;2022-12-11T07:56:42;2.80;;;1.20;;
6089;SDS011;3073;42.660;23.316;2022-12-11T07:59:11;2.87;;;1.20;;
6089;SDS011;3073;42.660;23.316;2022-12-11T08:01:42;3.80;;;0.80;;
6089;SDS011;3073;42.660;23.316;2022-12-11T08:04:10;3.87;;;1.10;;
6089;SDS011;3073;42.660;23.316;2022-12-11T08:06:39;2.70;;;0.83;;
6089;SDS011;3073;42.660;23.316;2022-12-11T08:09:10;5.43;;;0.73;;
6089;SDS011;3073;42.660;23.316;2022-12-11T08:11:39;2.53;;;0.67;;
6089;SDS011;3073;42.660;23.316;2022-12-11T08:14:05;1.30;;;0.83;;
6089;SDS011;3073;42.660;23.316;2022-12-11T08:16:33;2.37;;;0.93;;
6089;SDS011;3073;42.660;23.316;2022-12-11T08:19:02;10.97;;;1.00;;
6089;SDS011;3073;42.660;23.316;2022-12-11T08:21:28;2.73;;;1.10;;
6089;SDS011;3073;42.660;23.316;2022-12-11T08:23:55;2.60;;;1.10;;
6089;SDS011;3073;42.660;23.316;2022-12-11T08:26:24;3.37;;;1.20;;
6089;SDS011;3073;42.660;23.316;2022-12-11T08:28:52;2.37;;;1.47;;
6089;SDS011;3073;42.660;23.316;2022-12-11T08:31:20;4.10;;;2.10;;
6089;SDS011;3073;42.660;23.316;2022-12-11T08:33:47;2.83;;;1.00;;
6089;SDS011;3073;42.660;23.316;2022-12-11T08:36:17;2.40;;;1.30;;
6089;SDS011;3073;42.660;23.316;2022-12-11T08:38:45;7.10;;;2.27;;
6089;SDS011;3073;42.660;23.316;2022-12-11T08:41:12;3.27;;;1.60;;
6089;SDS011;3073;42.660;23.316;2022-12-11T08:43:40;4.07;;;2.10;;
6089;SDS011;3073;42.660;23.316;2022-12-11T08:46:08;3.20;;;1.50;;
6089;SDS011;3073;42.660;23.316;2022-12-11T08:48:36;1.70;;;1.07;;
6089;SDS011;3073;42.660;23.316;2022-12-11T08:51:05;1.30;;;0.80;;
6089;SDS011;3073;42.660;23.316;2022-12-11T08:53:35;5.10;;;1.97;;
6089;SDS011;3073;42.660;23.316;2022-12-11T08:56:03;5.03;;;1.93;;
6089;SDS011;3073;42.660;23.316;2022-12-11T08:58:31;5.33;;;1.53;;
6089;SDS011;3073;42.660;23.316;2022-12-11T09:00:58;4.37;;;1.37;;
6089;SDS011;3073;42.660;23.316;2022-12-11T09:03:25;1.90;;;1.33;;
6089;SDS011;3073;42.660;23.316;2022-12-11T09:05:52;2.17;;;1.33;;
6089;SDS011;3073;42.660;23.316;2022-12-11T09:08:19;3.73;;;1.90;;
6089;SDS011;3073;42.660;23.316;2022-12-11T09:10:47;2.17;;;1.33;;
6089;SDS011;3073;42.660;23.316;2022-12-11T09:13:14;1.83;;;1.30;;
6089;SDS011;3073;42.660;23.316;2022-12-11T09:15:41;4.17;;;1.60;;
6089;SDS011;3073;42.660;23.316;2022-12-11T09:18:08;4.13;;;2.20;;
6089;SDS011;3073;42.660;23.316;2022-12-11T09:20:35;3.03;;;1.53;;
6089;SDS011;3073;42.660;23.316;2022-12-11T09:23:01;7.03;;;1.60;;
6089;SDS011;3073;42.660;23.316;2022-12-11T09:25:28;3.97;;;1.30;;
6089;SDS011;3073;42.660;23.316;2022-12-11T09:27:57;3.00;;;1.20;;
6089;SDS011;3073;42.660;23.316;2022-12-11T09:30:24;1.20;;;0.70;;
6089;SDS011;3073;42.660;23.316;2022-12-11T09:32:50;3.00;;;1.00;;
6089;SDS011;3073;42.660;23.316;2022-12-11T09:35:17;3.60;;;1.00;;
6089;SDS011;3073;42.660;23.316;2022-12-11T09:37:44;1.40;;;0.97;;
6089;SDS011;3073;42.660;23.316;2022-12-11T09:40:11;2.60;;;1.20;;
6089;SDS011;3073;42.660;23.316;2022-12-11T09:42:43;3.80;;;1.00;;
6089;SDS011;3073;42.660;23.316;2022-12-11T09:45:17;6.27;;;1.90;;
6089;SDS011;3073;42.660;23.316;2022-12-11T09:47:46;6.63;;;2.60;;
6089;SDS011;3073;42.660;23.316;2022-12-11T09:50:18;2.07;;;1.13;;
6089;SDS011;3073;42.660;23.316;2022-12-11T09:52:52;1.40;;;1.00;;
6089;SDS011;3073;42.660;23.316;2022-12-11T09:55:29;4.73;;;1.33;;
6089;SDS011;3073;42.660;23.316;2022-12-11T09:58:02;3.43;;;1.30;;
6089;SDS011;3073;42.660;23.316;2022-12-11T10:00:38;2.90;;;1.23;;
6089;SDS011;3073;42.660;23.316;2022-12-11T10:03:21;2.23;;;0.97;;
6089;SDS011;3073;42.660;23.316;2022-12-11T10:06:01;2.43;;;1.53;;
6089;SDS011;3073;42.660;23.316;2022-12-11T10:08:34;3.37;;;1.30;;
6089;SDS011;3073;42.660;23.316;2022-12-11T10:11:13;6.00;;;1.60;;
6089;SDS011;3073;42.660;23.316;2022-12-11T10:13:56;2.90;;;1.00;;
6089;SDS011;3073;42.660;23.316;2022-12-11T10:16:34;3.53;;;1.20;;
6089;SDS011;3073;42.660;23.316;2022-12-11T10:19:04;2.50;;;1.20;;
6089;SDS011;3073;42.660;23.316;2022-12-11T10:21:38;2.33;;;1.30;;
6089;SDS011;3073;42.660;23.316;2022-12-11T10:24:10;1.70;;;1.20;;
6089;SDS011;3073;42.660;23.316;2022-12-11T10:26:47;2.17;;;1.10;;
6089;SDS011;3073;42.660;23.316;2022-12-11T10:29:19;5.03;;;1.70;;
6089;SDS011;3073;42.660;23.316;2022-12-11T10:31:49;2.47;;;1.00;;
6089;SDS011;3073;42.660;23.316;2022-12-11T10:34:23;1.93;;;1.23;;
6089;SDS011;3073;42.660;23.316;2022-12-11T10:36:56;1.60;;;1.10;;
6089;SDS011;3073;42.660;23.316;2022-12-11T10:39:26;1.40;;;1.00;;
6089;SDS011;3073;42.660;23.316;2022-12-11T10:41:56;2.83;;;1.83;;
6089;SDS011;3073;42.660;23.316;2022-12-11T10:44:26;1.70;;;1.37;;
6089;SDS011;3073;42.660;23.316;2022-12-11T10:47:05;5.33;;;2.03;;
6089;SDS011;3073;42.660;23.316;2022-12-11T10:49:36;4.93;;;2.00;;
6089;SDS011;3073;42.660;23.316;2022-12-11T10:52:08;1.63;;;1.10;;
6089;SDS011;3073;42.660;23.316;2022-12-11T10:54:37;2.07;;;1.10;;
6089;SDS011;3073;42.660;23.316;2022-12-11T10:57:06;3.70;;;0.83;;
6089;SDS011;3073;42.660;23.316;2022-12-11T10:59:35;2.70;;;0.90;;
6089;SDS011;3073;42.660;23.316;2022-12-11T11:02:06;1.67;;;1.00;;
6089;SDS011;3073;42.660;23.316;2022-12-11T11:04:44;4.67;;;1.20;;
6089;SDS011;3073;42.660;23.316;2022-12-11T11:07:12;2.20;;;1.07;;
6089;SDS011;3073;42.660;23.316;2022-12-11T11:09:43;3.37;;;1.23;;
6089;SDS011;3073;42.660;23.316;2022-12-11T11:12:18;1.63;;;1.07;;
6089;SDS011;3073;42.660;23.316;2022-12-11T11:14:57;2.00;;;1.30;;
6089;SDS011;3073;42.660;23.316;2022-12-11T11:17:27;3.77;;;0.87;;
6089;SDS011;3073;42.660;23.316;2022-12-11T11:19:55;2.03;;;1.13;;
6089;SDS011;3073;42.660;23.316;2022-12-11T11:22:24;2.53;;;1.80;;
6089;SDS011;3073;42.660;23.316;2022-12-11T11:24:52;1.73;;;1.10;;
6089;SDS011;3073;42.660;23.316;2022-12-11T11:27:24;5.90;;;0.93;;
6089;SDS011;3073;42.660;23.316;2022-12-11T11:29:55;1.50;;;1.00;;
6089;SDS011;3073;42.660;23.316;2022-12-11T11:32:27;1.37;;;0.90;;
6089;SDS011;3073;42.660;23.316;2022-12-11T11:35:05;2.30;;;1.23;;
6089;SDS011;3073;42.660;23.316;2022-12-11T11:37:43;2.50;;;1.00;;
6089;SDS011;3073;42.660;23.316;2022-12-11T11:40:12;1.40;;;0.90;;
6089;SDS011;3073;42.660;23.316;2022-12-11T11:42:48;6.53;;;1.87;;
6089;SDS011;3073;42.660;23.316;2022-12-11T11:45:23;2.80;;;1.30;;
6089;SDS011;3073;42.660;23.316;2022-12-11T11:47:59;3.60;;;1.70;;
6089;SDS011;3073;42.660;23.316;2022-12-11T11:50:36;2.93;;;1.50;;
6089;SDS011;3073;42.660;23.316;2022-12-11T11:53:09;2.60;;;1.70;;
6089;SDS011;3073;42.660;23.316;2022-12-11T11:55:45;3.10;;;2.50;;
6089;SDS011;3073;42.660;23.316;2022-12-11T11:58:20;6.77;;;2.70;;
6089;SDS011;3073;42.660;23.316;2022-12-11T12:00:52;9.63;;;3.43;;
6089;SDS011;3073;42.660;23.316;2022-12-11T12:03:20;2.23;;;1.50;;
6089;SDS011;3073;42.660;23.316;2022-12-11T12:05:51;2.50;;;1.70;;
6089;SDS011;3073;42.660;23.316;2022-12-11T12:08:26;2.23;;;1.60;;
6089;SDS011;3073;42.660;23.316;2022-12-11T12:11:04;2.03;;;1.20;;
6089;SDS011;3073;42.660;23.316;2022-12-11T12:13:40;2.53;;;1.60;;
6089;SDS011;3073;42.660;23.316;2022-12-11T12:16:18;5.50;;;3.20;;
6089;SDS011;3073;42.660;23.316;2022-12-11T12:18:57;8.20;;;2.33;;
6089;SDS011;3073;42.660;23.316;2022-12-11T12:21:35;6.37;;;1.93;;
6089;SDS011;3073;42.660;23.316;2022-12-11T12:24:12;2.23;;;1.60;;
6089;SDS011;3073;42.660;23.316;2022-12-11T12:26:43;3.53;;;1.70;;
6089;SDS011;3073;42.660;23.316;2022-12-11T12:29:19;6.03;;;2.17;;
6089;SDS011;3073;42.660;23.316;2022-12-11T12:31:57;6.83;;;2.30;;
6089;SDS011;3073;42.660;23.316;2022-12-11T12:34:48;1.70;;;1.57;;
6089;SDS011;3073;42.660;23.316;2022-12-11T12:37:31;3.50;;;1.50;;
6089;SDS011;3073;42.660;23.316;2022-12-11T12:40:13;4.27;;;2.90;;
6089;SDS011;3073;42.660;23.316;2022-12-11T12:42:45;7.13;;;3.63;;
6089;SDS011;3073;42.660;23.316;2022-12-11T12:45:20;5.20;;;2.60;;
6089;SDS011;3073;42.660;23.316;2022-12-11T12:47:53;2.90;;;2.60;;
6089;SDS011;3073;42.660;23.316;2022-12-11T12:50:22;5.23;;;3.00;;
6089;SDS011;3073;42.660;23.316;2022-12-11T12:52:54;3.03;;;2.30;;
6089;SDS011;3073;42.660;23.316;2022-12-11T12:55:23;3.50;;;2.17;;
6089;SDS011;3073;42.660;23.316;2022-12-11T12:57:55;3.30;;;2.13;;
6089;SDS011;3073;42.660;23.316;2022-12-11T13:00:25;3.47;;;2.10;;
6089;SDS011;3073;42.660;23.316;2022-12-11T13:02:53;3.37;;;2.60;;
6089;SDS011;3073;42.660;23.316;2022-12-11T13:05:23;2.70;;;2.30;;
6089;SDS011;3073;42.660;23.316;2022-12-11T13:07:51;5.30;;;2.57;;
6089;SDS011;3073;42.660;23.316;2022-12-11T13:10:24;4.03;;;3.00;;
6089;SDS011;3073;42.660;23.316;2022-12-11T13:12:54;5.77;;;3.87;;
6089;SDS011;3073;42.660;23.316;2022-12-11T13:15:25;5.93;;;4.27;;
6089;SDS011;3073;42.660;23.316;2022-12-11T13:17:57;4.43;;;3.53;;
6089;SDS011;3073;42.660;23.316;2022-12-11T13:20:26;4.73;;;3.13;;
6089;SDS011;3073;42.660;23.316;2022-12-11T13:23:07;3.50;;;2.20;;
6089;SDS011;3073;42.660;23.316;2022-12-11T13:25:49;5.43;;;2.60;;
6089;SDS011;3073;42.660;23.316;2022-12-11T13:28:28;5.07;;;2.60;;
6089;SDS011;3073;42.660;23.316;2022-12-11T13:30:59;4.80;;;3.03;;
6089;SDS011;3073;42.660;23.316;2022-12-11T13:33:28;3.80;;;2.53;;
6089;SDS011;3073;42.660;23.316;2022-12-11T13:36:14;4.67;;;3.20;;
6089;SDS011;3073;42.660;23.316;2022-12-11T13:38:51;5.10;;;2.63;;
6089;SDS011;3073;42.660;23.316;2022-12-11T13:41:20;5.13;;;2.90;;
6089;SDS011;3073;42.660;23.316;2022-12-11T13:43:48;4.10;;;3.67;;
6089;SDS011;3073;42.660;23.316;2022-12-11T13:46:19;4.10;;;3.07;;
6089;SDS011;3073;42.660;23.316;2022-12-11T13:48:50;7.50;;;4.20;;
6089;SDS011;3073;42.660;23.316;2022-12-11T13:51:21;6.57;;;2.90;;
6089;SDS011;3073;42.660;23.316;2022-12-11T13:54:00;7.17;;;3.37;;
6089;SDS011;3073;42.660;23.316;2022-12-11T13:56:29;2.20;;;1.30;;
6089;SDS011;3073;42.660;23.316;2022-12-11T13:58:56;2.07;;;1.53;;
6089;SDS011;3073;42.660;23.316;2022-12-11T14:01:23;5.03;;;2.67;;
6089;SDS011;3073;42.660;23.316;2022-12-11T14:03:53;2.47;;;1.70;;
6089;SDS011;3073;42.660;23.316;2022-12-11T14:06:24;1.83;;;1.43;;
6089;SDS011;3073;42.660;23.316;2022-12-11T14:08:53;1.97;;;1.33;;
6089;SDS011;3073;42.660;23.316;2022-12-11T14:11:22;4.60;;;1.50;;
6089;SDS011;3073;42.660;23.316;2022-12-11T14:13:52;1.93;;;1.43;;
6089;SDS011;3073;42.660;23.316;2022-12-11T14:16:21;2.10;;;1.90;;
6089;SDS011;3073;42.660;23.316;2022-12-11T14:18:50;2.30;;;1.80;;
6089;SDS011;3073;42.660;23.316;2022-12-11T14:21:20;6.13;;;3.90;;
6089;SDS011;3073;42.660;23.316;2022-12-11T14:23:53;17.17;;;12.77;;
6089;SDS011;3073;42.660;23.316;2022-12-11T14:26:21;6.53;;;4.63;;
6089;SDS011;3073;42.660;23.316;2022-12-11T14:28:50;4.07;;;3.13;;
6089;SDS011;3073;42.660;23.316;2022-12-11T14:31:18;6.30;;;3.67;;
6089;SDS011;3073;42.660;23.316;2022-12-11T14:33:52;3.23;;;1.90;;
6089;SDS011;3073;42.660;23.316;2022-12-11T14:36:24;3.03;;;1.70;;
6089;SDS011;3073;42.660;23.316;2022-12-11T14:38:54;1.60;;;1.20;;
6089;SDS011;3073;42.660;23.316;2022-12-11T14:41:26;2.50;;;1.47;;
6089;SDS011;3073;42.660;23.316;2022-12-11T14:44:01;2.00;;;1.53;;
6089;SDS011;3073;42.660;23.316;2022-12-11T14:46:31;2.07;;;1.40;;
6089;SDS011;3073;42.660;23.316;2022-12-11T14:49:06;1.60;;;1.50;;
6089;SDS011;3073;42.660;23.316;2022-12-11T14:51:41;3.57;;;1.57;;
6089;SDS011;3073;42.660;23.316;2022-12-11T14:54:13;2.00;;;1.70;;
6089;SDS011;3073;42.660;23.316;2022-12-11T14:56:46;4.20;;;1.03;;
6089;SDS011;3073;42.660;23.316;2022-12-11T14:59:16;3.60;;;1.10;;
6089;SDS011;3073;42.660;23.316;2022-12-11T15:01:55;2.03;;;1.60;;
6089;SDS011;3073;42.660;23.316;2022-12-11T15:04:26;5.50;;;1.30;;
6089;SDS011;3073;42.660;23.316;2022-12-11T15:06:56;1.97;;;1.67;;
6089;SDS011;3073;42.660;23.316;2022-12-11T15:09:26;2.80;;;1.70;;
6089;SDS011;3073;42.660;23.316;2022-12-11T15:11:55;4.70;;;2.33;;
6089;SDS011;3073;42.660;23.316;2022-12-11T15:14:24;3.47;;;2.57;;
6089;SDS011;3073;42.660;23.316;2022-12-11T15:16:53;2.90;;;1.90;;